Time;durP1;ratioP1;P1;durP2;ratioP2;P2;SDS_P1;SDS_P2;PMS_P1;PMS_P2;Temp;Humidity;BMP_temperature;BMP_pressure;BME280_temperature;BME280_humidity;BME280_pressure;Samples;Min_cycle;Max_cycle;Signal;HPM_P1;HPM_P2
2022/04/18 00:00:41;;;;;;;6.13;3.25;;;20.90;47.90;;;;;;5013584;28;20519;-59
2022/04/18 00:03:06;;;;;;;4.53;3.15;;;21.00;47.90;;;;;;5013725;28;20561;-59
2022/04/18 00:05:32;;;;;;;5.22;3.40;;;20.90;47.90;;;;;;5013232;28;20500;-59
2022/04/18 00:07:58;;;;;;;3.83;2.60;;;21.00;48.00;;;;;;5013883;28;20042;-59
2022/04/18 00:10:23;;;;;;;4.78;2.92;;;20.90;47.90;;;;;;5013600;28;20042;-58
2022/04/18 00:12:49;;;;;;;5.82;3.22;;;20.90;47.80;;;;;;5013093;28;20120;-59
2022/04/18 00:15:14;;;;;;;4.05;2.53;;;20.90;47.90;;;;;;5013960;28;20038;-58
2022/04/18 00:17:40;;;;;;;6.57;3.55;;;20.90;47.80;;;;;;5012832;28;20085;-59
2022/04/18 00:20:06;;;;;;;4.13;2.63;;;20.90;47.80;;;;;;5013659;28;20073;-59
2022/04/18 00:22:31;;;;;;;6.88;3.30;;;20.90;47.80;;;;;;5013897;28;20117;-59
2022/04/18 00:24:57;;;;;;;4.53;2.70;;;20.90;47.80;;;;;;5012922;28;20047;-59
2022/04/18 00:27:23;;;;;;;5.05;3.00;;;20.90;47.90;;;;;;5013634;28;20042;-58
2022/04/18 00:29:49;;;;;;;5.47;3.05;;;20.90;47.80;;;;;;5013224;28;20077;-59
2022/04/18 00:32:15;;;;;;;5.75;3.13;;;20.80;47.70;;;;;;5012511;28;20046;-59
2022/04/18 00:34:41;;;;;;;4.50;2.83;;;20.80;47.70;;;;;;5013427;28;20088;-58
2022/04/18 00:37:06;;;;;;;5.72;3.33;;;20.80;47.80;;;;;;5013413;28;20077;-59
2022/04/18 00:39:32;;;;;;;5.65;3.33;;;20.80;47.80;;;;;;5012929;28;20124;-58
2022/04/18 00:41:59;;;;;;;6.25;3.17;;;20.80;47.70;;;;;;5013279;28;20470;-59
2022/04/18 00:44:24;;;;;;;4.75;3.10;;;20.80;47.70;;;;;;5013410;28;20116;-58
2022/04/18 00:46:50;;;;;;;5.78;3.30;;;20.80;47.80;;;;;;5012466;28;20046;-59
2022/04/18 00:49:15;;;;;;;6.03;3.28;;;20.80;47.70;;;;;;5013416;28;20046;-59
2022/04/18 00:51:41;;;;;;;5.57;3.30;;;20.80;47.70;;;;;;5013040;28;20389;-59
2022/04/18 00:54:07;;;;;;;5.20;3.17;;;20.80;47.80;;;;;;5012649;28;20082;-59
2022/04/18 00:56:32;;;;;;;6.70;3.08;;;20.70;47.70;;;;;;5011805;28;20514;-59
2022/04/18 00:58:58;;;;;;;4.80;3.38;;;20.80;47.70;;;;;;5013054;28;20049;-59
2022/04/18 01:01:24;;;;;;;4.60;3.20;;;20.70;47.70;;;;;;5012479;28;20042;-59
2022/04/18 01:03:49;;;;;;;5.03;3.20;;;20.70;47.70;;;;;;5012709;28;20127;-59
2022/04/18 01:06:15;;;;;;;5.53;3.08;;;20.70;47.70;;;;;;5013376;28;20491;-59
2022/04/18 01:08:41;;;;;;;5.30;3.00;;;20.70;47.70;;;;;;5012061;28;20038;-59
2022/04/18 01:11:08;;;;;;;4.85;3.00;;;20.70;47.70;;;;;;5010853;28;20050;-59
2022/04/18 01:13:44;;;;;;;6.95;3.58;;;20.70;47.70;;;;;;5012831;28;20519;-59
2022/04/18 01:16:09;;;;;;;5.47;3.00;;;20.70;47.60;;;;;;5013288;28;20042;-58
2022/04/18 01:18:35;;;;;;;5.05;3.13;;;20.70;47.70;;;;;;5012754;28;20052;-59
2022/04/18 01:21:02;;;;;;;5.88;3.67;;;20.70;47.60;;;;;;5011713;28;20132;-59
2022/04/18 01:23:28;;;;;;;5.47;3.10;;;20.70;47.70;;;;;;5013065;28;20052;-59
2022/04/18 01:31:22;;;;;;;5.57;3.20;;;20.60;47.70;;;;;;5012282;28;20062;-59
2022/04/18 01:33:48;;;;;;;4.80;3.10;;;20.60;47.60;;;;;;5012183;28;20046;-59
2022/04/18 01:36:13;;;;;;;5.57;3.53;;;20.60;47.60;;;;;;5011803;28;20135;-59
2022/04/18 01:38:39;;;;;;;5.18;2.97;;;20.60;47.60;;;;;;5012379;28;20516;-59
2022/04/18 01:41:04;;;;;;;5.57;3.40;;;20.60;47.60;;;;;;5012706;28;20052;-59
2022/04/18 01:43:30;;;;;;;5.43;3.28;;;20.60;47.60;;;;;;5011574;28;20085;-59
2022/04/18 01:45:55;;;;;;;6.13;3.58;;;20.60;47.60;;;;;;5012424;28;20548;-59
2022/04/18 01:48:21;;;;;;;5.38;3.63;;;20.60;47.60;;;;;;5012592;28;20064;-59
2022/04/18 01:50:46;;;;;;;5.45;3.40;;;20.60;47.60;;;;;;5011318;28;20132;-59
2022/04/18 01:53:12;;;;;;;5.43;3.63;;;20.60;47.60;;;;;;5012454;28;20046;-59
2022/04/18 01:55:37;;;;;;;5.75;3.58;;;20.60;47.70;;;;;;5012335;28;20124;-59
2022/04/18 01:58:05;;;;;;;6.38;3.55;;;20.60;47.60;;;;;;5011639;28;20139;-59
2022/04/18 02:00:33;;;;;;;5.23;3.30;;;20.50;47.50;;;;;;5015472;28;20045;-59
2022/04/18 02:02:59;;;;;;;7.80;3.72;;;20.50;47.50;;;;;;5029258;28;20051;-58
2022/04/18 02:05:25;;;;;;;5.55;3.85;;;20.50;47.50;;;;;;5031608;28;20396;-59
2022/04/18 02:07:50;;;;;;;5.75;3.50;;;20.50;47.50;;;;;;5031695;28;20038;-59
2022/04/18 02:10:16;;;;;;;5.85;3.53;;;20.50;47.60;;;;;;5031462;28;20041;-59
2022/04/18 02:12:41;;;;;;;4.97;3.05;;;20.50;47.50;;;;;;5031946;28;20091;-59
2022/04/18 02:15:07;;;;;;;5.32;3.30;;;20.50;47.50;;;;;;5031760;28;20123;-58
2022/04/18 02:17:33;;;;;;;4.90;3.25;;;20.50;47.60;;;;;;5031281;28;20049;-58
2022/04/18 02:19:58;;;;;;;5.25;3.35;;;20.50;47.60;;;;;;5031152;28;20060;-59
2022/04/18 02:22:24;;;;;;;4.47;3.10;;;20.50;47.60;;;;;;5033735;28;20041;-58
2022/04/18 02:24:50;;;;;;;6.50;3.50;;;20.50;47.50;;;;;;5034842;28;20052;-59
2022/04/18 02:27:16;;;;;;;5.22;3.72;;;20.40;47.50;;;;;;5036004;28;20041;-58
2022/04/18 02:29:42;;;;;;;5.97;3.50;;;20.50;47.50;;;;;;5035299;28;20052;-59
2022/04/18 02:34:52;;;;;;;5.85;3.42;;;20.40;47.50;;;;;;5035436;28;20045;-58
2022/04/18 02:37:18;;;;;;;7.25;3.92;;;20.40;47.50;;;;;;5035531;28;20501;-59
2022/04/18 02:39:43;;;;;;;6.38;3.70;;;20.40;47.50;;;;;;5034389;28;20041;-59
2022/04/18 02:42:09;;;;;;;6.63;3.65;;;20.40;47.50;;;;;;5035592;28;20046;-59
2022/04/18 02:44:34;;;;;;;6.35;4.15;;;20.40;47.50;;;;;;5035509;28;20049;-58
2022/04/18 02:47:00;;;;;;;5.72;3.50;;;20.40;47.40;;;;;;5034171;28;20041;-59
2022/04/18 02:49:25;;;;;;;5.40;3.20;;;20.40;47.40;;;;;;5034159;28;20056;-59
2022/04/18 02:51:51;;;;;;;6.57;3.58;;;20.40;47.40;;;;;;5034648;28;20128;-59
2022/04/18 02:54:16;;;;;;;7.00;3.75;;;20.40;47.40;;;;;;5034469;28;20065;-59
2022/04/18 02:56:42;;;;;;;5.90;3.85;;;20.40;47.30;;;;;;5034725;28;20089;-59
2022/04/18 02:59:07;;;;;;;6.43;3.83;;;20.40;47.30;;;;;;5035090;28;20049;-59
2022/04/18 03:01:33;;;;;;;6.00;3.75;;;20.40;47.30;;;;;;5034342;28;20054;-58
2022/04/18 03:03:58;;;;;;;6.38;3.90;;;20.40;47.20;;;;;;5034835;28;20045;-59
2022/04/18 03:06:24;;;;;;;5.63;3.45;;;20.40;47.20;;;;;;5034075;28;20132;-59
2022/04/18 03:08:49;;;;;;;6.70;3.97;;;20.40;47.20;;;;;;5034843;28;20038;-59
2022/04/18 03:11:15;;;;;;;5.45;3.55;;;20.40;47.20;;;;;;5035054;28;20441;-59
2022/04/18 03:13:44;;;;;;;6.70;3.53;;;20.40;47.20;;;;;;5033923;28;20040;-59
2022/04/18 03:16:09;;;;;;;;;;;20.40;47.10;;;;;;5035394;28;20045;-59
2022/04/18 03:18:35;;;;;;;4.80;3.42;;;20.40;47.20;;;;;;5034810;28;19921;-59
2022/04/18 03:21:00;;;;;;;5.93;3.58;;;20.40;47.20;;;;;;5033727;28;20053;-59
2022/04/18 03:23:26;;;;;;;4.82;3.30;;;20.40;47.20;;;;;;5034550;28;20041;-58
2022/04/18 03:25:51;;;;;;;5.45;3.60;;;20.50;47.30;;;;;;5034141;28;20054;-58
2022/04/18 03:28:17;;;;;;;6.28;3.70;;;20.50;47.20;;;;;;5034014;28;20469;-59
2022/04/18 03:30:44;;;;;;;5.45;3.40;;;20.50;47.20;;;;;;5033903;28;20056;-59
2022/04/18 03:33:09;;;;;;;6.00;3.50;;;20.50;47.20;;;;;;5033518;28;20493;-59
2022/04/18 03:35:35;;;;;;;5.22;3.33;;;20.50;47.20;;;;;;5033470;28;20132;-59
2022/04/18 03:40:44;;;;;;;6.78;3.75;;;20.50;47.30;;;;;;5034002;28;20132;-58
2022/04/18 03:43:10;;;;;;;6.40;3.72;;;20.50;47.20;;;;;;5033760;28;20132;-58
2022/04/18 03:45:35;;;;;;;6.20;3.80;;;20.50;47.20;;;;;;5033896;28;20057;-59
2022/04/18 03:48:01;;;;;;;5.75;3.80;;;20.50;47.20;;;;;;5033912;28;20473;-59
2022/04/18 03:50:26;;;;;;;6.28;3.53;;;20.50;47.60;;;;;;5033431;28;20045;-59
2022/04/18 03:52:52;;;;;;;5.70;3.50;;;20.50;47.20;;;;;;5033843;28;20072;-59
2022/04/18 03:55:18;;;;;;;6.00;3.78;;;20.50;47.20;;;;;;5034174;28;20045;-59
2022/04/18 03:57:43;;;;;;;5.75;3.63;;;20.50;47.20;;;;;;5033039;28;20069;-59
2022/04/18 04:00:09;;;;;;;6.38;3.38;;;20.50;47.20;;;;;;5033658;28;20049;-59
2022/04/18 04:02:35;;;;;;;6.40;3.85;;;20.50;47.20;;;;;;5027255;28;20493;-59
2022/04/18 04:05:01;;;;;;;7.05;3.60;;;20.50;47.10;;;;;;5032020;28;20073;-59
2022/04/18 04:07:26;;;;;;;4.85;3.70;;;20.50;47.10;;;;;;5033271;28;20091;-58
2022/04/18 04:09:53;;;;;;;4.75;3.42;;;20.50;47.10;;;;;;5032692;28;20042;-59
2022/04/18 04:12:28;;;;;;;5.05;3.40;;;20.50;47.10;;;;;;5033859;28;20045;-59
2022/04/18 04:14:54;;;;;;;4.95;3.50;;;20.50;47.10;;;;;;5032004;28;20045;-59
2022/04/18 04:17:21;;;;;;;5.28;3.92;;;20.50;47.10;;;;;;5033023;28;20037;-58
2022/04/18 04:19:46;;;;;;;6.18;3.70;;;20.60;47.10;;;;;;5033284;28;20053;-58
2022/04/18 04:22:12;;;;;;;5.72;3.75;;;20.60;47.10;;;;;;5033314;28;20048;-59
2022/04/18 04:24:37;;;;;;;5.55;3.58;;;20.60;47.10;;;;;;5032866;28;20049;-58
2022/04/18 04:27:03;;;;;;;5.95;3.88;;;20.50;47.10;;;;;;5033612;28;20555;-58
2022/04/18 04:29:29;;;;;;;5.13;3.53;;;20.60;47.20;;;;;;5033083;28;20044;-58
2022/04/18 04:31:54;;;;;;;5.90;3.42;;;20.60;47.10;;;;;;5032051;28;20061;-58
2022/04/18 04:34:20;;;;;;;6.43;3.45;;;20.60;47.10;;;;;;5033394;28;20140;-59
2022/04/18 04:36:45;;;;;;;6.70;4.00;;;20.60;47.10;;;;;;5032850;28;20046;-58
2022/04/18 04:39:11;;;;;;;5.90;3.55;;;20.60;47.10;;;;;;5032554;28;20045;-59
2022/04/18 04:41:36;;;;;;;6.25;3.30;;;20.60;47.20;;;;;;5033160;28;20045;-58
2022/04/18 04:44:02;;;;;;;5.63;3.55;;;20.60;47.20;;;;;;5032583;28;20045;-59
2022/04/18 04:46:28;;;;;;;6.10;3.63;;;20.60;47.10;;;;;;5032573;28;20511;-59
2022/04/18 04:48:53;;;;;;;5.20;3.55;;;20.60;47.10;;;;;;5032968;28;20038;-59
2022/04/18 04:51:19;;;;;;;6.88;3.50;;;20.60;47.10;;;;;;5033233;28;20047;-59
2022/04/18 04:53:44;;;;;;;5.85;3.28;;;20.60;47.10;;;;;;5031979;28;20045;-59
2022/04/18 04:56:10;;;;;;;6.13;3.63;;;20.60;47.10;;;;;;5032789;28;20053;-59
2022/04/18 04:58:35;;;;;;;5.72;3.75;;;20.60;47.10;;;;;;5032745;28;20474;-58
2022/04/18 05:01:01;;;;;;;4.93;3.50;;;20.60;47.10;;;;;;5031820;28;20056;-58
2022/04/18 05:03:27;;;;;;;4.70;3.10;;;20.60;47.10;;;;;;5032480;28;20045;-58
2022/04/18 05:05:53;;;;;;;6.30;3.45;;;20.60;47.10;;;;;;5031513;28;20386;-58
2022/04/18 05:08:18;;;;;;;5.90;3.65;;;20.70;47.00;;;;;;5032884;28;20099;-58
2022/04/18 05:10:44;;;;;;;6.45;4.20;;;20.70;46.90;;;;;;5032573;28;20045;-58
2022/04/18 05:13:09;;;;;;;4.93;3.35;;;20.70;46.80;;;;;;5032096;28;20053;-58
2022/04/18 05:15:35;;;;;;;5.50;3.38;;;20.80;46.80;;;;;;5032604;28;20080;-58
2022/04/18 05:18:01;;;;;;;4.85;3.33;;;20.80;46.80;;;;;;5032443;28;20042;-58
2022/04/18 05:20:27;;;;;;;6.90;3.60;;;20.80;46.80;;;;;;5031505;28;20477;-58
2022/04/18 05:22:53;;;;;;;5.03;3.67;;;20.80;46.70;;;;;;5032499;28;20080;-58
2022/04/18 05:25:20;;;;;;;6.90;3.90;;;20.80;46.70;;;;;;5032353;28;20135;-59
2022/04/18 05:27:46;;;;;;;4.82;3.60;;;20.80;46.70;;;;;;5031424;28;20045;-59
2022/04/18 05:30:11;;;;;;;6.53;3.88;;;20.80;46.80;;;;;;5032408;28;20397;-59
2022/04/18 05:32:37;;;;;;;5.63;3.45;;;20.80;46.70;;;;;;5032644;28;20052;-59
2022/04/18 05:35:04;;;;;;;5.25;3.25;;;20.80;46.80;;;;;;5030948;28;20049;-58
2022/04/18 05:37:29;;;;;;;6.82;3.63;;;20.80;46.90;;;;;;5030702;28;20053;-59
2022/04/18 05:39:55;;;;;;;4.95;3.40;;;20.80;47.00;;;;;;5031882;28;20059;-59
2022/04/18 05:42:24;;;;;;;5.55;3.25;;;20.80;47.00;;;;;;5030551;28;20501;-59
2022/04/18 05:44:49;;;;;;;7.13;3.55;;;20.80;47.10;;;;;;5032175;28;20046;-59
2022/04/18 05:47:14;;;;;;;5.10;3.03;;;20.80;47.10;;;;;;5031464;28;20045;-59
2022/04/18 05:49:40;;;;;;;4.90;3.20;;;20.80;47.30;;;;;;5030176;28;20037;-58
2022/04/18 05:52:06;;;;;;;5.50;3.80;;;20.80;47.30;;;;;;5031534;28;20045;-59
2022/04/18 05:54:31;;;;;;;6.72;3.65;;;20.90;47.40;;;;;;5031840;28;20049;-59
2022/04/18 05:56:57;;;;;;;6.53;3.38;;;20.90;47.40;;;;;;5031870;28;20043;-59
2022/04/18 05:59:22;;;;;;;5.45;3.40;;;20.90;47.40;;;;;;5036341;28;20045;-59
2022/04/18 06:01:48;;;;;;;5.57;3.40;;;20.90;47.50;;;;;;5035862;28;20424;-59
2022/04/18 06:04:13;;;;;;;6.65;3.42;;;20.90;47.50;;;;;;5035479;28;20044;-59
2022/04/18 06:06:39;;;;;;;5.32;3.33;;;20.90;47.60;;;;;;5035961;28;20537;-59
2022/04/18 06:09:05;;;;;;;7.85;3.05;;;20.90;47.70;;;;;;5036487;28;20046;-59
2022/04/18 06:11:30;;;;;;;6.35;3.60;;;20.90;47.70;;;;;;5034780;28;20392;-59
2022/04/18 06:13:56;;;;;;;5.18;3.40;;;20.90;47.70;;;;;;5036732;28;20420;-59
2022/04/18 06:16:21;;;;;;;7.65;3.17;;;20.90;47.80;;;;;;5035312;28;20068;-58
2022/04/18 06:18:47;;;;;;;6.90;3.35;;;20.90;47.90;;;;;;5035444;28;20163;-59
2022/04/18 06:21:13;;;;;;;8.25;3.22;;;20.90;48.10;;;;;;5026709;28;20068;-59
2022/04/18 06:23:38;;;;;;;7.07;3.50;;;21.00;48.20;;;;;;5018449;28;20041;-60
2022/04/18 06:26:04;;;;;;;5.68;3.25;;;21.00;48.40;;;;;;5022751;28;20052;-59
2022/04/18 06:28:29;;;;;;;5.45;3.08;;;21.00;48.50;;;;;;5015158;28;20073;-59
2022/04/18 06:30:55;;;;;;;5.47;3.22;;;21.00;48.50;;;;;;5014788;28;20497;-59
2022/04/18 06:33:20;;;;;;;6.65;3.45;;;21.00;48.50;;;;;;5015944;28;20589;-58
2022/04/18 06:35:46;;;;;;;5.15;2.97;;;21.10;48.70;;;;;;5015555;28;20034;-58
2022/04/18 06:38:12;;;;;;;6.00;3.20;;;21.10;48.70;;;;;;5015091;28;20054;-58
2022/04/18 06:40:37;;;;;;;7.57;3.20;;;21.10;48.80;;;;;;5015885;28;20045;-59
2022/04/18 06:43:03;;;;;;;7.63;3.35;;;21.10;48.90;;;;;;5015463;28;20133;-58
2022/04/18 06:45:30;;;;;;;5.50;3.30;;;21.10;49.00;;;;;;5014745;28;20080;-59
2022/04/18 06:47:56;;;;;;;6.93;3.93;;;21.20;49.00;;;;;;5015389;28;20490;-59
2022/04/18 06:50:21;;;;;;;9.05;4.20;;;21.20;49.00;;;;;;5023460;28;20048;-59
2022/04/18 06:52:49;;;;;;;6.25;4.38;;;21.20;49.00;;;;;;5024935;28;20056;-59
2022/04/18 06:55:15;;;;;;;6.38;4.20;;;21.20;49.00;;;;;;5018250;28;20080;-59
2022/04/18 06:57:41;;;;;;;5.93;4.07;;;21.20;49.20;;;;;;5014849;28;20077;-59
2022/04/18 07:00:06;;;;;;;7.97;4.20;;;21.20;49.20;;;;;;5014832;28;20546;-59
2022/04/18 07:02:32;;;;;;;5.90;3.83;;;21.20;49.20;;;;;;5015431;28;20053;-60
2022/04/18 07:04:58;;;;;;;6.65;4.18;;;21.30;49.20;;;;;;5015028;28;20070;-59
2022/04/18 07:07:23;;;;;;;5.88;3.80;;;21.30;49.20;;;;;;5014700;28;20049;-59
2022/04/18 07:09:49;;;;;;;7.43;3.80;;;21.30;49.50;;;;;;5013821;28;20052;-59
2022/04/18 07:12:18;;;;;;;5.60;3.47;;;21.30;49.20;;;;;;5015266;28;20042;-59
2022/04/18 07:14:44;;;;;;;6.22;4.30;;;21.30;49.20;;;;;;5014291;28;20137;-59
2022/04/18 07:17:09;;;;;;;7.10;4.18;;;21.30;49.30;;;;;;5015296;28;20116;-59
2022/04/18 07:19:35;;;;;;;6.00;3.80;;;21.30;49.20;;;;;;5014293;28;20433;-59
2022/04/18 07:22:02;;;;;;;6.55;4.05;;;21.30;49.30;;;;;;5014922;28;20057;-59
2022/04/18 07:24:27;;;;;;;8.80;3.88;;;21.40;49.40;;;;;;5014909;28;20042;-59
2022/04/18 07:26:53;;;;;;;10.73;4.80;;;21.40;49.50;;;;;;5013840;28;20078;-59
2022/04/18 07:29:19;;;;;;;5.70;3.90;;;21.40;49.40;;;;;;5014315;28;20493;-59
2022/04/18 07:31:44;;;;;;;6.18;4.03;;;21.50;49.40;;;;;;5014264;28;20062;-59
2022/04/18 07:34:10;;;;;;;6.47;3.60;;;21.40;49.30;;;;;;5013941;28;20053;-59
2022/04/18 07:36:35;;;;;;;6.72;3.95;;;21.50;49.30;;;;;;5013345;28;20576;-59
2022/04/18 07:39:01;;;;;;;8.00;4.07;;;21.40;49.30;;;;;;5027716;28;20100;-59
2022/04/18 07:41:28;;;;;;;5.45;3.40;;;21.50;49.40;;;;;;5033409;28;20071;-59
2022/04/18 07:43:54;;;;;;;6.55;3.80;;;21.50;49.40;;;;;;5033333;28;20135;-59
2022/04/18 07:46:20;;;;;;;5.53;3.50;;;21.50;49.40;;;;;;5032777;28;20405;-60
2022/04/18 07:48:47;;;;;;;6.05;3.10;;;21.50;49.30;;;;;;5012591;28;20481;-58
2022/04/18 07:53:57;;;;;;;5.40;3.53;;;21.50;49.30;;;;;;5014050;28;20054;-59
2022/04/18 07:56:23;;;;;;;6.93;3.42;;;21.50;49.20;;;;;;5013665;28;20034;-59
2022/04/18 07:58:50;;;;;;;5.47;3.58;;;21.60;49.20;;;;;;5014331;28;20042;-59
2022/04/18 08:01:16;;;;;;;5.18;3.15;;;21.60;49.20;;;;;;5014410;28;20054;-59
2022/04/18 08:03:41;;;;;;;5.53;3.15;;;21.60;49.20;;;;;;5013154;28;20133;-59
2022/04/18 08:06:07;;;;;;;8.10;3.30;;;21.60;49.10;;;;;;5014220;28;20038;-59
2022/04/18 08:08:33;;;;;;;5.00;2.97;;;21.60;49.20;;;;;;5014146;28;20042;-59
2022/04/18 08:10:59;;;;;;;7.13;3.40;;;21.60;49.10;;;;;;5013144;28;20050;-59
2022/04/18 08:13:24;;;;;;;5.28;2.97;;;21.60;49.10;;;;;;5014276;28;20046;-59
2022/04/18 08:15:50;;;;;;;5.18;3.00;;;21.60;49.10;;;;;;5013229;28;20129;-59
2022/04/18 08:18:16;;;;;;;6.65;2.80;;;21.60;49.00;;;;;;5014096;28;20042;-59
2022/04/18 08:20:41;;;;;;;6.15;3.10;;;21.70;49.10;;;;;;5012944;28;20111;-58
2022/04/18 08:23:07;;;;;;;6.57;2.83;;;21.70;49.10;;;;;;5013238;28;20401;-58
2022/04/18 08:25:32;;;;;;;6.95;3.38;;;21.60;49.10;;;;;;5021313;28;20041;-59
2022/04/18 08:27:58;;;;;;;5.60;2.95;;;21.70;49.20;;;;;;5022076;28;20830;-58
2022/04/18 08:30:23;;;;;;;7.00;2.85;;;21.70;49.30;;;;;;5022310;28;20049;-58
2022/04/18 08:32:49;;;;;;;7.07;3.10;;;21.70;49.30;;;;;;5021563;28;20042;-59
2022/04/18 08:35:14;;;;;;;5.95;3.05;;;21.80;49.40;;;;;;5022613;28;20064;-56
2022/04/18 08:37:40;;;;;;;6.30;3.20;;;21.80;49.30;;;;;;5022979;28;20053;-61
2022/04/18 08:40:09;;;;;;;5.47;3.42;;;21.80;48.50;;;;;;5022022;28;20120;-57
2022/04/18 08:42:36;;;;;;;6.05;3.63;;;21.80;47.20;;;;;;5022999;28;20046;-59
2022/04/18 08:45:04;;;;;;;6.28;3.35;;;21.70;45.90;;;;;;5023101;28;20128;-58
2022/04/18 08:52:59;;;;;;;6.93;3.75;;;21.70;44.00;;;;;;5019128;28;20076;-58
2022/04/18 08:55:25;;;;;;;8.30;3.20;;;21.70;44.00;;;;;;5023984;28;20037;-58
2022/04/18 08:57:50;;;;;;;7.72;2.92;;;21.70;44.10;;;;;;5022261;28;20049;-57
2022/04/18 09:00:16;;;;;;;6.25;3.38;;;21.70;44.30;;;;;;5021225;28;20116;-56
2022/04/18 09:02:41;;;;;;;5.60;2.80;;;21.70;44.90;;;;;;5023568;28;20038;-57
2022/04/18 09:05:11;;;;;;;7.50;2.50;;;21.70;45.10;;;;;;5021026;28;20092;-57
2022/04/18 09:07:36;;;;;;;7.13;3.00;;;21.70;45.20;;;;;;5022090;28;20049;-56
2022/04/18 09:10:02;;;;;;;6.72;2.55;;;21.70;45.40;;;;;;5022113;28;20187;-56
2022/04/18 09:12:28;;;;;;;6.63;2.60;;;21.70;45.60;;;;;;5012373;28;20045;-56
2022/04/18 09:14:54;;;;;;;9.77;2.88;;;21.70;45.70;;;;;;5012928;28;20042;-57
2022/04/18 09:17:29;;;;;;;10.75;3.45;;;21.70;45.90;;;;;;5017639;28;20049;-58
2022/04/18 09:20:07;;;;;;;9.55;3.67;;;21.70;46.40;;;;;;5031659;28;20077;-57
2022/04/18 09:22:43;;;;;;;9.23;4.22;;;21.70;46.60;;;;;;5032454;28;20129;-57
2022/04/18 09:25:15;;;;;;;13.02;4.35;;;21.70;46.90;;;;;;5032691;28;20122;-57
2022/04/18 09:27:41;;;;;;;9.23;4.53;;;21.70;47.10;;;;;;5031509;28;20052;-58
2022/04/18 09:30:07;;;;;;;10.00;3.67;;;21.70;47.30;;;;;;5032269;28;20121;-57
2022/04/18 09:32:33;;;;;;;9.73;4.13;;;21.70;47.50;;;;;;5032012;28;20053;-57
2022/04/18 09:35:00;;;;;;;10.18;4.30;;;21.70;47.70;;;;;;5030898;28;20049;-57
2022/04/18 09:37:27;;;;;;;8.38;3.95;;;21.70;47.90;;;;;;5032771;28;20056;-57
2022/04/18 09:39:53;;;;;;;9.20;4.10;;;21.70;48.00;;;;;;5047109;28;20391;-57
2022/04/18 09:42:21;;;;;;;7.47;4.28;;;21.70;48.10;;;;;;5031684;28;20046;-57
2022/04/18 09:44:46;;;;;;;11.80;4.80;;;21.70;48.20;;;;;;5031928;28;20432;-57
2022/04/18 09:47:19;;;;;;;10.10;4.57;;;21.70;48.30;;;;;;5031731;28;20042;-57
2022/04/18 09:49:44;;;;;;;8.35;4.10;;;21.70;48.40;;;;;;5032199;28;20092;-57
2022/04/18 09:52:11;;;;;;;10.70;4.07;;;21.70;48.60;;;;;;5032512;28;20069;-56
2022/04/18 09:54:43;;;;;;;9.00;4.22;;;21.70;48.60;;;;;;5022635;28;20092;-56
2022/04/18 09:57:08;;;;;;;7.57;3.97;;;21.70;48.60;;;;;;5018052;28;20045;-56
2022/04/18 09:59:34;;;;;;;8.80;3.65;;;21.70;48.80;;;;;;5012664;28;20137;-57
2022/04/18 10:01:59;;;;;;;8.52;4.13;;;21.70;48.80;;;;;;5017920;28;20053;-56
2022/04/18 10:04:25;;;;;;;10.00;4.22;;;21.70;48.80;;;;;;5029957;28;20034;-57
2022/04/18 10:06:54;;;;;;;8.00;3.90;;;21.70;48.90;;;;;;5022718;28;20053;-57
2022/04/18 10:09:19;;;;;;;;;;;21.70;49.10;;;;;;5026534;28;20046;-57
2022/04/18 10:11:45;;;;;;;8.35;4.07;;;21.70;49.00;;;;;;5011988;28;19984;-57
2022/04/18 10:14:11;;;;;;;9.07;3.60;;;21.60;48.90;;;;;;5012604;28;20073;-56
2022/04/18 10:16:36;;;;;;;8.32;3.92;;;21.60;48.90;;;;;;5011948;28;20050;-57
2022/04/18 10:19:23;;;;;;;8.65;3.72;;;21.70;49.00;;;;;;5027425;28;20053;-57
2022/04/18 10:21:53;;;;;;;10.05;4.70;;;21.60;49.10;;;;;;5025096;28;20046;-57
2022/04/18 10:24:42;;;;;;;7.88;3.67;;;21.70;49.80;;;;;;5011643;28;20042;-57
2022/04/18 10:27:42;;;;;;;6.70;3.35;;;21.60;49.10;;;;;;5027535;28;20038;-57
2022/04/18 10:30:07;;;;;;;7.78;3.97;;;21.60;49.20;;;;;;5024366;28;20048;-58
2022/04/18 10:32:34;;;;;;;11.02;4.15;;;21.60;49.20;;;;;;5027387;28;20046;-57
2022/04/18 10:35:00;;;;;;;11.63;4.18;;;21.60;49.20;;;;;;5027264;28;20092;-57
2022/04/18 10:37:26;;;;;;;7.63;3.65;;;21.60;49.40;;;;;;5011783;28;20042;-57
2022/04/18 10:40:03;;;;;;;7.03;3.90;;;21.60;49.40;;;;;;5019591;28;20046;-57
2022/04/18 10:42:36;;;;;;;9.40;4.10;;;21.60;49.50;;;;;;5022155;28;20045;-57
2022/04/18 10:45:12;;;;;;;6.93;3.70;;;21.60;49.40;;;;;;5023337;28;20497;-57
2022/04/18 10:47:56;;;;;;;8.00;3.92;;;21.60;49.50;;;;;;5024090;28;20417;-57
2022/04/18 10:50:22;;;;;;;8.32;3.97;;;21.60;49.50;;;;;;5021129;28;20038;-58
2022/04/18 10:53:10;;;;;;;12.13;4.30;;;21.60;49.50;;;;;;5023567;28;20046;-57
2022/04/18 10:55:37;;;;;;;9.57;3.60;;;21.60;49.50;;;;;;5033329;28;20041;-58
2022/04/18 10:58:16;;;;;;;7.90;3.15;;;21.60;49.40;;;;;;5034241;28;20049;-57
2022/04/18 11:00:54;;;;;;;8.65;3.40;;;21.60;49.30;;;;;;5034623;28;20045;-57
2022/04/18 11:03:39;;;;;;;6.50;3.00;;;21.60;49.30;;;;;;5035130;28;20084;-57
2022/04/18 11:06:16;;;;;;;7.63;3.22;;;21.60;48.50;;;;;;5033725;28;20049;-57
2022/04/18 11:08:56;;;;;;;7.72;3.10;;;21.60;48.10;;;;;;5033874;28;20041;-57
2022/04/18 11:11:22;;;;;;;8.05;3.10;;;21.50;48.20;;;;;;5035262;28;20060;-57
2022/04/18 11:13:48;;;;;;;7.70;3.25;;;21.50;48.30;;;;;;5034234;28;20041;-57
2022/04/18 11:16:22;;;;;;;6.25;3.00;;;21.50;48.40;;;;;;5035165;28;20046;-57
2022/04/18 11:19:07;;;;;;;4.95;2.90;;;21.50;48.40;;;;;;5034133;28;20075;-57
2022/04/18 11:21:58;;;;;;;6.38;2.80;;;21.50;48.50;;;;;;5034911;28;20049;-57
2022/04/18 11:24:37;;;;;;;6.15;2.50;;;21.50;48.60;;;;;;5035006;28;20073;-57
2022/04/18 11:27:10;;;;;;;7.93;3.15;;;21.50;48.60;;;;;;5033936;28;20061;-57
2022/04/18 11:29:36;;;;;;;7.07;3.00;;;21.50;48.60;;;;;;5034699;28;20484;-57
2022/04/18 11:32:02;;;;;;;6.20;2.92;;;21.50;48.60;;;;;;5034165;28;20064;-57
2022/04/18 11:34:29;;;;;;;7.75;3.00;;;21.50;48.60;;;;;;5033907;28;20120;-57
2022/04/18 11:36:55;;;;;;;5.93;2.67;;;21.50;48.60;;;;;;5034963;28;20049;-57
2022/04/18 11:39:21;;;;;;;6.55;3.10;;;21.50;48.60;;;;;;5033619;28;20096;-57
2022/04/18 11:41:46;;;;;;;6.50;2.38;;;21.50;48.60;;;;;;5033347;28;20508;-57
2022/04/18 11:44:12;;;;;;;7.10;3.00;;;21.50;48.70;;;;;;5034387;28;20049;-57
2022/04/18 11:46:38;;;;;;;5.70;2.53;;;21.50;48.70;;;;;;5034663;28;20469;-57
2022/04/18 11:49:03;;;;;;;5.10;2.60;;;21.50;48.70;;;;;;5033409;28;20057;-57
2022/04/18 11:51:39;;;;;;;7.25;2.50;;;21.50;48.80;;;;;;5034646;28;20041;-57
2022/04/18 11:54:04;;;;;;;6.38;2.63;;;21.50;48.70;;;;;;5033227;28;20386;-57
2022/04/18 11:56:30;;;;;;;6.30;2.92;;;21.50;48.80;;;;;;5034100;28;20485;-56
2022/04/18 11:58:55;;;;;;;3.97;2.42;;;21.50;48.80;;;;;;5034071;28;20545;-57
2022/04/18 12:06:52;;;;;;;4.35;2.20;;;21.50;48.70;;;;;;5034031;28;20085;-57
2022/04/18 12:09:23;;;;;;;5.22;2.53;;;21.50;48.80;;;;;;5033412;28;20136;-57
2022/04/18 12:11:49;;;;;;;4.85;2.25;;;21.50;48.80;;;;;;5033627;28;20049;-57
2022/04/18 12:14:16;;;;;;;5.78;2.65;;;21.50;48.80;;;;;;5033792;28;20049;-57
2022/04/18 12:16:42;;;;;;;5.13;2.25;;;21.50;48.80;;;;;;5033153;28;20047;-57
2022/04/18 12:19:11;;;;;;;5.22;2.42;;;21.50;48.80;;;;;;5033724;28;20045;-57
2022/04/18 12:21:37;;;;;;;6.97;2.92;;;21.50;48.80;;;;;;5033976;28;20042;-57
2022/04/18 12:24:02;;;;;;;3.95;2.20;;;21.50;48.80;;;;;;5032897;28;20042;-57
2022/04/18 12:26:35;;;;;;;4.13;2.17;;;21.50;48.90;;;;;;5033918;28;20053;-57
2022/04/18 12:29:09;;;;;;;4.70;2.00;;;21.40;48.80;;;;;;5032701;28;20050;-57
2022/04/18 12:31:38;;;;;;;5.00;2.17;;;21.50;48.80;;;;;;5033461;28;20061;-57
2022/04/18 12:34:04;;;;;;;4.97;2.30;;;21.50;48.80;;;;;;5033679;28;20045;-57
2022/04/18 12:36:32;;;;;;;3.65;2.05;;;21.50;48.80;;;;;;5032862;28;20378;-57
2022/04/18 12:38:58;;;;;;;4.47;1.77;;;21.50;48.70;;;;;;5033206;28;20033;-57
2022/04/18 12:41:30;;;;;;;6.28;2.15;;;21.50;48.80;;;;;;5033096;28;20068;-57
2022/04/18 12:43:56;;;;;;;4.95;2.22;;;21.60;48.90;;;;;;5032346;28;20060;-57
2022/04/18 12:46:25;;;;;;;5.72;2.05;;;21.60;48.90;;;;;;5033514;28;20392;-57
2022/04/18 12:48:51;;;;;;;3.60;1.88;;;21.60;48.90;;;;;;5031727;28;20405;-57
2022/04/18 12:51:18;;;;;;;4.20;2.10;;;21.60;48.80;;;;;;5031339;28;20512;-57
2022/04/18 12:53:51;;;;;;;4.28;2.10;;;21.60;48.80;;;;;;5032915;28;20052;-57
2022/04/18 12:56:21;;;;;;;4.18;2.13;;;21.60;48.80;;;;;;5033330;28;20041;-57
2022/04/18 12:58:54;;;;;;;5.40;2.20;;;21.60;48.80;;;;;;5032240;28;20116;-57
2022/04/18 13:01:36;;;;;;;3.50;2.28;;;21.60;48.70;;;;;;5031805;28;20401;-57
2022/04/18 13:04:26;;;;;;;4.03;1.88;;;21.60;48.70;;;;;;5032836;28;20406;-57
2022/04/18 13:06:59;;;;;;;4.15;2.30;;;21.60;48.70;;;;;;5031602;28;20123;-57
2022/04/18 13:09:24;;;;;;;5.03;2.42;;;21.70;48.70;;;;;;5032761;28;20406;-57
2022/04/18 13:11:58;;;;;;;4.32;2.10;;;21.70;48.90;;;;;;5031963;28;20547;-57